KMWA/MWA METAR and TAF weather

Enter ICAO airport designator
Station Type Date Time Source
KMWA METAR 2019/10/18 10:55 UTC NOAA

KMWA 181055Z AUTO 00000KT 10SM CLR 02/02 A3006 RMK AO2 T00190019


Station Type Date Time Source
KMWA Decoded METAR 2019/10/18 10:55 UTC NOAA

Marion, Williamson County Regional Airport, IL, United States (KMWA) 37-45-01N 089-00-04W
Oct 18, 2019 - 06:55 AM EDT / 2019.10.18 1055 UTC
Wind: Calm:0
Visibility: 10 mile(s):0
Sky conditions: clear
Temperature: 35.4 F (1.9 C)
Dew Point: 35.4 F (1.9 C)
Relative Humidity: 100%
Pressure (altimeter): 30.06 in. Hg (1017 hPa)
ob: KMWA 181055Z AUTO 00000KT 10SM CLR 02/02 A3006 RMK AO2 T00190019
cycle: 11

Station Type Date Time Source
KMWA TAF UTC NOAA

Error!

Example: see airport list